createdAt,value
2019-05-11T00:04:06.621Z,11.39
2019-05-11T00:09:02.951Z,11.36
2019-05-11T00:13:56.906Z,11.44
2019-05-11T00:18:51.177Z,11.47
2019-05-11T00:23:45.157Z,11.42
2019-05-11T00:28:39.129Z,11.38
2019-05-11T00:33:33.096Z,11.52
2019-05-11T00:38:27.037Z,11.36
2019-05-11T00:43:21.015Z,11.43
2019-05-11T00:48:14.996Z,11.41
2019-05-11T00:53:09.274Z,11.40
2019-05-11T00:58:03.340Z,11.39
2019-05-11T01:02:57.287Z,11.35
2019-05-11T01:07:51.261Z,11.39
2019-05-11T01:12:45.319Z,11.41
2019-05-11T01:17:39.409Z,11.40
2019-05-11T01:22:33.383Z,11.33
2019-05-11T01:27:27.342Z,11.25
2019-05-11T01:32:21.298Z,11.18
2019-05-11T01:37:15.331Z,11.21
2019-05-11T01:42:09.212Z,11.23
2019-05-11T01:47:03.262Z,11.16
2019-05-11T01:51:57.219Z,11.17
2019-05-11T01:56:51.209Z,11.12
2019-05-11T02:01:45.183Z,11.12
2019-05-11T02:06:39.137Z,11.16
2019-05-11T02:11:33.171Z,11.13
2019-05-11T02:16:27.129Z,11.04
2019-05-11T02:21:21.133Z,10.94
2019-05-11T02:26:15.103Z,11.02
2019-05-11T02:31:09.089Z,11.07
2019-05-11T02:36:03.185Z,11.12
2019-05-11T02:40:57.261Z,11.03
2019-05-11T02:45:51.218Z,10.98
2019-05-11T02:50:45.599Z,11.05
2019-05-11T02:55:39.564Z,11.08
2019-05-11T03:00:36.627Z,11.04
2019-05-11T03:05:30.590Z,10.99
2019-05-11T03:10:24.576Z,10.96
2019-05-11T03:15:18.528Z,10.97
2019-05-11T03:20:12.490Z,10.96
2019-05-11T03:25:06.442Z,10.97
2019-05-11T03:30:01.673Z,10.97
2019-05-11T03:34:56.290Z,10.88
2019-05-11T03:39:50.207Z,10.90
2019-05-11T03:44:44.165Z,10.92
2019-05-11T03:49:38.144Z,10.93
2019-05-11T03:54:32.109Z,10.98
2019-05-11T03:59:26.058Z,10.88
2019-05-11T04:04:20.009Z,10.91
2019-05-11T04:09:13.973Z,10.90
2019-05-11T04:14:07.922Z,11.00
2019-05-11T04:19:01.874Z,10.98
2019-05-11T04:23:55.873Z,10.98
2019-05-11T04:28:49.820Z,11.08
2019-05-11T04:33:43.878Z,10.94
2019-05-11T04:38:37.937Z,11.00
2019-05-11T04:43:32.145Z,11.03
2019-05-11T04:48:26.134Z,11.05
2019-05-11T04:53:20.114Z,11.12
2019-05-11T04:58:14.164Z,11.24
2019-05-11T05:03:08.128Z,11.26
2019-05-11T05:08:09.505Z,11.36
2019-05-11T05:13:10.275Z,11.43
2019-05-11T05:17:53.877Z,11.50
2019-05-11T05:22:47.849Z,11.53
2019-05-11T05:27:41.778Z,11.57
2019-05-11T05:32:35.747Z,11.63
2019-05-11T05:37:29.708Z,11.69
2019-05-11T05:42:23.719Z,11.72
2019-05-11T05:47:17.761Z,11.81
2019-05-11T05:52:11.941Z,11.75
2019-05-11T05:57:05.881Z,11.79
2019-05-11T06:01:59.847Z,11.83
2019-05-11T06:06:54.346Z,11.86
2019-05-11T06:11:48.367Z,11.91
2019-05-11T06:16:42.346Z,12.00
2019-05-11T06:21:36.309Z,12.04
2019-05-11T06:26:30.398Z,12.16
2019-05-11T06:31:24.461Z,12.28
2019-05-11T06:36:18.424Z,12.51
2019-05-11T06:41:12.381Z,12.51
2019-05-11T06:46:06.330Z,12.56
2019-05-11T06:51:00.477Z,12.58
2019-05-11T06:55:54.454Z,12.59
2019-05-11T07:00:48.405Z,12.56
2019-05-11T07:05:43.281Z,12.60
2019-05-11T07:10:37.370Z,12.65
2019-05-11T07:15:31.342Z,12.69
2019-05-11T07:20:25.323Z,12.48
2019-05-11T07:25:19.411Z,12.62
2019-05-11T07:30:13.516Z,12.72
2019-05-11T07:35:08.402Z,12.77
2019-05-11T07:40:05.501Z,12.80
2019-05-11T07:44:59.483Z,12.89
2019-05-11T07:49:53.498Z,13.02
2019-05-11T07:54:52.602Z,13.26
2019-05-11T07:59:43.361Z,13.40
2019-05-11T08:04:37.921Z,13.68
2019-05-11T08:09:32.018Z,13.89
2019-05-11T08:14:28.758Z,14.17
2019-05-11T08:19:22.480Z,14.82
2019-05-11T08:24:18.031Z,14.99
2019-05-11T08:29:12.230Z,15.01
2019-05-11T08:34:08.664Z,14.88
2019-05-11T08:39:04.688Z,14.76
2019-05-11T08:43:58.915Z,14.74
2019-05-11T08:48:52.942Z,14.76
2019-05-11T08:53:48.007Z,14.73
2019-05-11T08:58:42.185Z,14.70
2019-05-11T09:03:38.553Z,14.77
2019-05-11T09:08:32.109Z,14.92
2019-05-11T09:13:27.920Z,15.20
2019-05-11T09:18:22.110Z,15.34
2019-05-11T09:23:30.890Z,15.10
2019-05-11T09:28:12.170Z,14.75
2019-05-11T09:33:08.404Z,14.87
2019-05-11T09:38:02.346Z,15.05
2019-05-11T09:42:58.322Z,14.99
2019-05-11T09:47:52.232Z,15.57
2019-05-11T09:52:48.722Z,15.87
2019-05-11T09:57:42.292Z,16.51
2019-05-11T10:02:38.539Z,17.07
2019-05-11T10:07:32.676Z,16.90
2019-05-11T10:12:28.606Z,17.42
2019-05-11T10:17:22.493Z,17.41
2019-05-11T10:22:18.554Z,17.12
2019-05-11T10:27:12.565Z,17.41
2019-05-11T10:32:07.952Z,18.44
2019-05-11T10:37:02.241Z,20.15
2019-05-11T10:41:58.385Z,22.02
2019-05-11T10:46:52.281Z,23.30
2019-05-11T10:51:48.503Z,23.61
2019-05-11T10:56:42.221Z,23.13
2019-05-11T11:01:38.000Z,22.43
2019-05-11T11:06:33.440Z,24.73
2019-05-11T11:11:27.962Z,24.10
2019-05-11T11:16:35.737Z,21.62
2019-05-11T11:21:22.529Z,22.61
2019-05-11T11:26:13.901Z,25.57
2019-05-11T11:31:08.072Z,27.12
2019-05-11T11:36:02.157Z,25.48
2019-05-11T11:40:58.511Z,21.13
2019-05-11T11:45:52.001Z,19.08
2019-05-11T11:50:48.053Z,21.81
2019-05-11T11:55:41.967Z,23.05
2019-05-11T12:00:36.085Z,26.39
2019-05-11T12:05:30.217Z,28.99
2019-05-11T12:10:24.222Z,24.42
2019-05-11T12:15:18.398Z,22.83
2019-05-11T12:20:12.678Z,22.05
2019-05-11T12:25:07.954Z,21.34
2019-05-11T12:30:05.354Z,20.68
2019-05-11T12:34:59.357Z,19.46
2019-05-11T12:39:53.332Z,21.81
2019-05-11T12:44:48.153Z,27.28
2019-05-11T12:49:42.503Z,35.23
2019-05-11T12:54:38.401Z,39.95
2019-05-11T12:59:32.529Z,33.80
2019-05-11T13:04:28.249Z,25.49
2019-05-11T13:09:22.426Z,22.07
2019-05-11T13:14:18.451Z,22.69
2019-05-11T13:19:12.385Z,22.33
2019-05-11T13:24:08.326Z,21.09
2019-05-11T13:29:02.471Z,20.69
2019-05-11T13:33:58.544Z,20.08
2019-05-11T13:38:52.369Z,19.46
2019-05-11T13:43:48.528Z,19.60
2019-05-11T13:48:42.429Z,18.83
2019-05-11T13:53:37.662Z,18.93
2019-05-11T13:58:31.789Z,20.09
2019-05-11T14:03:27.688Z,21.30
2019-05-11T14:08:21.776Z,23.08
2019-05-11T14:13:17.560Z,29.39
2019-05-11T14:18:12.162Z,37.81
2019-05-11T14:23:07.719Z,40.06
2019-05-11T14:28:02.031Z,40.49
2019-05-11T14:32:58.102Z,40.62
2019-05-11T14:37:51.996Z,39.83
2019-05-11T14:42:45.981Z,38.81
2019-05-11T14:47:42.690Z,40.45
2019-05-11T14:52:38.191Z,39.38
2019-05-11T14:57:31.943Z,34.21
2019-05-11T15:02:28.653Z,31.50
2019-05-11T15:07:22.717Z,33.64
2019-05-11T15:12:18.154Z,33.42
2019-05-11T15:17:12.253Z,30.52
2019-05-11T15:22:08.553Z,28.29
2019-05-11T15:27:02.089Z,24.81
2019-05-11T15:31:57.919Z,22.10
2019-05-11T15:36:52.056Z,21.19
2019-05-11T15:41:48.043Z,20.07
2019-05-11T15:46:42.255Z,19.55
2019-05-11T15:51:40.753Z,21.91
2019-05-11T15:56:32.511Z,22.79
2019-05-11T16:01:28.778Z,24.37
2019-05-11T16:06:22.470Z,22.64
2019-05-11T16:11:18.088Z,20.66
2019-05-11T16:16:13.863Z,20.03
2019-05-11T16:21:07.853Z,20.50
2019-05-11T16:26:02.329Z,22.89
2019-05-11T16:30:58.348Z,21.88
2019-05-11T16:35:52.310Z,20.47
2019-05-11T16:40:48.024Z,19.58
2019-05-11T16:45:42.314Z,18.68
2019-05-11T16:50:38.284Z,18.43
2019-05-11T16:55:32.325Z,18.08
2019-05-11T17:00:26.383Z,17.93
2019-05-11T17:05:26.650Z,18.00
2019-05-11T17:10:17.956Z,17.97
2019-05-11T17:15:12.412Z,18.30
2019-05-11T17:20:07.921Z,18.12
2019-05-11T17:25:04.931Z,17.96
2019-05-11T17:29:59.412Z,17.63
2019-05-11T17:34:53.426Z,17.52
2019-05-11T17:39:48.036Z,16.95
2019-05-11T17:44:42.116Z,16.44
2019-05-11T17:49:38.366Z,16.16
2019-05-11T17:54:32.106Z,16.10
2019-05-11T17:59:28.129Z,16.11
2019-05-11T18:04:25.047Z,15.93
2019-05-11T18:09:19.426Z,15.84
2019-05-11T18:14:13.448Z,15.65
2019-05-11T18:19:08.491Z,15.66
2019-05-11T18:24:03.109Z,15.47
2019-05-11T18:28:58.613Z,15.26
2019-05-11T18:33:52.775Z,15.08
2019-05-11T18:38:48.765Z,14.96
2019-05-11T18:43:42.698Z,14.66
2019-05-11T18:48:38.090Z,14.50
2019-05-11T18:53:32.323Z,14.41
2019-05-11T18:58:27.681Z,14.22
2019-05-11T19:03:22.026Z,14.01
2019-05-11T19:08:16.056Z,13.96
2019-05-11T19:13:10.213Z,13.71
2019-05-11T19:18:04.316Z,13.64
2019-05-11T19:22:58.967Z,13.45
2019-05-11T19:27:55.459Z,13.16
2019-05-11T19:32:50.768Z,13.07
2019-05-11T19:37:44.724Z,12.88
2019-05-11T19:42:53.846Z,12.72
2019-05-11T19:47:48.445Z,12.65
2019-05-11T19:52:42.612Z,12.50
2019-05-11T19:57:38.622Z,12.37
2019-05-11T20:02:32.844Z,12.13
2019-05-11T20:07:26.825Z,12.30
2019-05-11T20:12:20.963Z,12.16
2019-05-11T20:17:14.944Z,12.11
2019-05-11T20:22:09.071Z,12.01
2019-05-11T20:27:03.163Z,12.01
2019-05-11T20:31:58.545Z,11.80
2019-05-11T20:36:52.574Z,11.80
2019-05-11T20:41:47.741Z,11.71
2019-05-11T20:46:41.830Z,11.55
2019-05-11T20:51:37.163Z,11.32
2019-05-11T20:56:31.326Z,11.17
2019-05-11T21:01:28.294Z,11.14
2019-05-11T21:06:21.981Z,11.08
2019-05-11T21:11:17.990Z,11.05
2019-05-11T21:16:11.838Z,10.94
2019-05-11T21:21:05.869Z,10.84
2019-05-11T21:25:59.955Z,10.79
2019-05-11T21:30:54.061Z,10.70
2019-05-11T21:35:48.904Z,10.63
2019-05-11T21:40:43.575Z,10.57
2019-05-11T21:45:40.476Z,10.25
2019-05-11T21:50:33.512Z,10.18
2019-05-11T21:55:29.340Z,10.18
2019-05-11T22:00:25.486Z,10.05
2019-05-11T22:05:20.924Z,10.01
2019-05-11T22:10:17.286Z,9.89
2019-05-11T22:15:11.284Z,9.94
2019-05-11T22:20:07.575Z,9.92
2019-05-11T22:25:02.728Z,9.73
2019-05-11T22:29:58.945Z,9.55
2019-05-11T22:34:52.726Z,9.36
2019-05-11T22:39:46.741Z,9.34
2019-05-11T22:44:40.720Z,9.22
2019-05-11T22:49:34.778Z,9.24
2019-05-11T22:54:29.058Z,9.11
2019-05-11T22:59:23.084Z,9.18
2019-05-11T23:04:19.651Z,9.18
2019-05-11T23:09:13.523Z,9.19
2019-05-11T23:14:09.925Z,9.08
2019-05-11T23:19:03.443Z,8.96
2019-05-11T23:23:58.354Z,8.88
2019-05-11T23:28:52.501Z,8.79
2019-05-11T23:33:46.463Z,8.76
2019-05-11T23:38:40.428Z,8.70
2019-05-11T23:43:34.382Z,8.63
2019-05-11T23:48:28.358Z,8.50
2019-05-11T23:53:22.364Z,8.43
2019-05-11T23:58:19.160Z,8.38
